KNSI

San Nicolas Island Nolf Airport

San Nicolas Island, California, USA
METAR KNSI 182057Z 31013KT 4SM BR FEW000 SCT008 23/18 A3005 RMK AO2 SLP167 VIS N-NE 2 FG FEW000 T02330183 58016 $
Observed Flight Rules
Aug-18 @ 20:57 UTC (57 minutes ago) Marginal Visual Flight Rules
Wind Visibility Clouds Conditions
310° at 13 knots 4 miles
  • Few
  • Scattered at 800' AGL
  • Mist
Temperatures Readings
Current 23°C / 73°F
Dewpoint 18°C / 64°F
Humidity 74%
Altimeter 30.05" Hg
Pressure 1016.7 hPa
Elevation 154
METAR KNSI 182057Z 31013KT 4SM BR FEW000 SCT008 23/18 A3005 RMK AO2 SLP167 VIS N-NE 2 FG FEW000 T02330183 58016 $
Observed Flight Rules
Aug-18 @ 20:57 UTC
(57 minutes ago)
MVFR
Wind Visibility
310° at 13 knots 4 miles
Clouds
  • Few
  • Scattered at 800' AGL
Conditions
  • Mist
Temperature Dewpoint
23°C / 73°F 18°C / 64°F
Humidity Altimeter Pressure
74% 30.05" Hg 1016.7 hPa